Time;durP1;ratioP1;P1;durP2;ratioP2;P2;SDS_P1;SDS_P2;PMS_P1;PMS_P2;Temp;Humidity;BMP_temperature;BMP_pressure;BME280_temperature;BME280_humidity;BME280_pressure;Samples;Min_cycle;Max_cycle;Signal;HPM_P1;HPM_P2
2023/06/23 00:00:09;;;;;;;4.28;2.03;;;;;;;27.33;55.10;98622.53;2066932;28;20415;-56
2023/06/23 00:01:11;;;;;;;2.92;2.05;;;;;;;27.24;51.11;98621.34;2060171;28;20053;-53
2023/06/23 00:02:12;;;;;;;2.40;2.20;;;;;;;27.23;50.68;98625.19;2069493;28;20140;-53
2023/06/23 00:03:15;;;;;;;9.93;2.25;;;;;;;27.20;50.56;98617.53;2070140;28;20057;-50
2023/06/23 00:04:15;;;;;;;4.13;2.33;;;;;;;27.16;50.18;98616.41;2071884;28;20670;-48
2023/06/23 00:05:17;;;;;;;6.50;2.65;;;;;;;27.15;49.32;98612.00;2072251;28;20077;-55
2023/06/23 00:06:18;;;;;;;3.75;2.30;;;;;;;27.06;47.56;98608.94;2071793;28;20081;-54
2023/06/23 00:07:20;;;;;;;3.65;2.38;;;;;;;27.11;48.44;98606.28;2070767;28;20061;-53
2023/06/23 00:08:21;;;;;;;7.15;2.60;;;;;;;27.12;48.25;98599.75;2070205;28;20050;-51
2023/06/23 00:09:22;;;;;;;7.07;3.10;;;;;;;27.06;47.63;98597.25;2067820;28;20126;-53
2023/06/23 00:10:25;;;;;;;6.00;2.90;;;;;;;27.03;47.66;98598.59;2062670;28;20375;-52
2023/06/23 00:11:27;;;;;;;9.40;3.25;;;;;;;27.03;47.54;98604.03;2069055;28;20044;-54
2023/06/23 00:12:27;;;;;;;3.75;2.50;;;;;;;26.96;44.29;98597.97;2069711;28;21747;-50
2023/06/23 00:13:34;;;;;;;7.15;3.17;;;;;;;27.00;43.11;98625.50;2070913;28;20057;-55
2023/06/23 00:14:35;;;;;;;5.28;3.15;;;;;;;26.91;43.17;98658.63;2069821;28;20125;-52
2023/06/23 00:15:37;;;;;;;6.88;2.92;;;;;;;26.92;44.36;98689.41;2067769;28;20050;-53
2023/06/23 00:16:39;;;;;;;11.32;3.13;;;;;;;27.00;46.43;98716.16;2071803;28;20718;-53
2023/06/23 00:17:41;;;;;;;11.65;3.13;;;;;;;27.06;46.66;98736.09;2068174;28;20112;-52
2023/06/23 00:18:42;;;;;;;5.28;3.30;;;;;;;26.99;45.55;98738.16;2068180;28;20703;-52
2023/06/23 00:19:44;;;;;;;8.35;3.35;;;;;;;26.90;45.15;98732.38;2072312;28;20069;-52
2023/06/23 00:20:44;;;;;;;7.90;3.53;;;;;;;26.91;43.96;98714.94;2071671;28;20569;-54
2023/06/23 00:21:46;;;;;;;5.20;3.55;;;;;;;26.89;44.38;98712.50;2071381;28;20152;-50
2023/06/23 00:22:47;;;;;;;3.78;3.17;;;;;;;26.94;44.28;98700.81;2069402;28;20488;-52
2023/06/23 00:23:48;;;;;;;4.82;3.45;;;;;;;26.91;44.03;98693.19;2071473;28;20238;-52
2023/06/23 00:24:49;;;;;;;5.82;3.50;;;;;;;26.96;43.31;98707.66;2072305;28;20136;-53
2023/06/23 00:25:52;;;;;;;8.32;2.85;;;;;;;26.86;43.58;98723.91;2071815;28;20499;-49
2023/06/23 00:26:53;;;;;;;8.63;3.67;;;;;;;26.82;44.11;98749.97;2071073;28;20088;-52
2023/06/23 00:27:55;;;;;;;8.13;3.22;;;;;;;26.87;44.14;98773.69;2070257;28;20061;-48
2023/06/23 00:28:55;;;;;;;8.73;3.22;;;;;;;26.86;44.03;98778.31;2072830;28;20085;-51
2023/06/23 00:29:57;;;;;;;10.18;3.00;;;;;;;26.91;44.05;98777.53;2071751;28;20060;-51
2023/06/23 00:30:58;;;;;;;6.85;3.20;;;;;;;26.84;43.56;98779.66;2069732;28;20081;-54
2023/06/23 00:31:59;;;;;;;13.23;3.92;;;;;;;26.85;43.90;98775.84;2067006;28;20641;-52
2023/06/23 00:33:00;;;;;;;4.25;3.38;;;;;;;26.81;44.16;98786.44;2070650;28;20080;-51
2023/06/23 00:34:02;;;;;;;7.38;3.28;;;;;;;26.82;43.66;98781.81;2071928;28;20054;-51
2023/06/23 00:35:03;;;;;;;7.10;3.80;;;;;;;26.79;44.28;98787.75;2070947;28;20603;-53
2023/06/23 00:36:05;;;;;;;6.53;4.18;;;;;;;26.73;44.41;98795.03;2067964;28;20053;-51
2023/06/23 00:37:06;;;;;;;6.47;3.05;;;;;;;26.80;44.58;98795.69;2069037;28;20123;-51
2023/06/23 00:38:08;;;;;;;11.55;4.32;;;;;;;26.83;44.91;98808.78;2071564;28;20068;-54
2023/06/23 00:39:09;;;;;;;6.18;3.35;;;;;;;26.84;45.07;98802.25;2072686;28;20046;-54
2023/06/23 00:40:11;;;;;;;4.55;3.05;;;;;;;26.91;45.03;98823.81;2069773;28;20123;-53
2023/06/23 00:41:13;;;;;;;7.38;4.05;;;;;;;26.84;45.12;98823.19;2071455;28;20446;-56
2023/06/23 00:42:15;;;;;;;5.93;4.28;;;;;;;26.78;45.63;98825.03;2070700;28;20103;-53
2023/06/23 00:43:16;;;;;;;6.28;3.15;;;;;;;26.78;45.93;98832.38;2070203;28;20538;-53
2023/06/23 00:44:18;;;;;;;4.75;3.50;;;;;;;26.77;46.13;98828.00;2070217;28;20050;-53
2023/06/23 00:45:19;;;;;;;5.32;2.92;;;;;;;26.73;46.35;98823.06;2072075;28;20209;-53
2023/06/23 00:46:24;;;;;;;4.53;3.08;;;;;;;26.69;45.17;98826.53;2072089;28;20574;-52
2023/06/23 00:47:24;;;;;;;5.03;3.55;;;;;;;26.66;46.04;98837.91;2072334;28;20506;-50
2023/06/23 00:48:26;;;;;;;6.95;3.60;;;;;;;26.58;46.69;98841.06;2068681;28;20050;-54
2023/06/23 00:49:27;;;;;;;5.55;3.03;;;;;;;26.62;46.99;98837.59;2070747;28;20069;-49
2023/06/23 00:50:29;;;;;;;4.97;3.33;;;;;;;26.66;47.62;98843.34;2070998;28;20509;-49
2023/06/23 00:51:30;;;;;;;11.48;3.42;;;;;;;26.67;47.04;98845.84;2070268;28;20496;-51
2023/06/23 00:52:32;;;;;;;3.70;3.00;;;;;;;26.65;46.95;98847.16;2072085;28;20107;-49
2023/06/23 00:53:32;;;;;;;7.30;3.33;;;;;;;26.64;47.11;98834.66;2069775;28;20128;-50
2023/06/23 00:54:35;;;;;;;6.72;3.20;;;;;;;26.68;46.70;98808.56;2072912;28;20056;-52
2023/06/23 00:55:37;;;;;;;7.28;3.75;;;;;;;26.64;47.15;98758.47;2071100;28;20069;-49
2023/06/23 00:56:41;;;;;;;7.45;3.97;;;;;;;26.64;47.02;98714.94;2071486;28;20044;-51
2023/06/23 00:57:41;;;;;;;8.60;4.82;;;;;;;26.66;46.55;98675.53;2069448;28;20049;-54
2023/06/23 00:58:43;;;;;;;6.43;2.53;;;;;;;26.65;45.80;98665.72;2071262;28;20548;-55
2023/06/23 00:59:44;;;;;;;3.63;3.22;;;;;;;26.67;46.36;98658.13;2071493;28;20053;-52
2023/06/23 01:00:46;;;;;;;5.72;3.40;;;;;;;26.74;46.54;98661.47;2073240;28;20115;-57
2023/06/23 01:01:47;;;;;;;5.57;3.40;;;;;;;26.66;46.74;98656.47;2071181;28;20049;-53
2023/06/23 01:02:50;;;;;;;3.60;3.25;;;;;;;26.66;47.15;98663.81;2069072;28;20521;-52
2023/06/23 01:03:50;;;;;;;5.03;3.50;;;;;;;26.67;46.62;98725.31;2068798;28;20582;-53
2023/06/23 01:04:52;;;;;;;4.60;3.30;;;;;;;26.76;45.99;98767.31;2067794;28;20496;-48
2023/06/23 01:05:56;;;;;;;7.63;4.32;;;;;;;26.49;46.12;98768.06;2061730;28;20554;-53
2023/06/23 01:07:08;;;;;;;4.57;3.30;;;;;;;26.30;46.87;98737.63;2068277;28;20132;-55
2023/06/23 01:08:26;;;;;;;5.72;3.92;;;;;;;26.38;47.29;98749.13;2070368;28;20079;-48
2023/06/23 01:09:38;;;;;;;3.65;3.13;;;;;;;26.39;46.69;98778.78;2071593;28;20439;-50
2023/06/23 01:10:45;;;;;;;6.13;4.13;;;;;;;26.17;47.37;98802.41;2070845;28;20111;-57
2023/06/23 01:11:56;;;;;;;6.55;3.83;;;;;;;26.27;47.79;98822.41;2069748;28;20053;-52
2023/06/23 01:13:07;;;;;;;5.70;3.40;;;;;;;26.25;47.77;98834.59;2071532;28;20140;-51
2023/06/23 01:14:16;;;;;;;4.18;3.63;;;;;;;26.19;48.23;98860.09;2070654;28;20045;-53
2023/06/23 01:15:22;;;;;;;5.13;3.38;;;;;;;26.15;48.54;98867.06;2071498;28;20125;-54
2023/06/23 01:16:29;;;;;;;6.43;4.25;;;;;;;25.97;47.75;98836.34;2072314;28;20553;-51
2023/06/23 01:17:35;;;;;;;6.38;3.90;;;;;;;25.89;47.76;98804.16;2064665;28;20615;-53
2023/06/23 01:18:46;;;;;;;7.88;3.97;;;;;;;25.90;48.95;98778.63;2068288;28;20486;-51
2023/06/23 01:19:53;;;;;;;6.10;3.45;;;;;;;26.02;48.95;98773.94;2067800;28;20087;-50
2023/06/23 01:21:02;;;;;;;9.50;3.15;;;;;;;26.16;48.91;98768.97;2065789;28;20045;-49
2023/06/23 01:22:12;;;;;;;5.85;3.58;;;;;;;26.22;48.89;98778.03;2066843;28;20503;-55
2023/06/23 01:23:28;;;;;;;6.60;2.85;;;;;;;26.30;49.32;98764.81;2070066;28;20052;-52
2023/06/23 01:24:41;;;;;;;7.15;3.97;;;;;;;26.25;48.48;98766.63;2070309;28;20388;-49
2023/06/23 01:25:54;;;;;;;7.18;3.75;;;;;;;26.23;48.76;98763.34;2070600;28;20499;-49
2023/06/23 01:27:13;;;;;;;5.13;3.25;;;;;;;26.26;49.55;98771.81;2067001;28;20148;-51
2023/06/23 01:28:33;;;;;;;3.78;2.67;;;;;;;26.29;49.91;98768.59;2069694;28;20515;-52
2023/06/23 01:29:36;;;;;;;6.75;3.42;;;;;;;26.33;49.53;98779.81;2070999;28;20142;-51
2023/06/23 01:30:44;;;;;;;7.57;3.25;;;;;;;26.30;49.00;98785.75;2069962;28;20046;-51
2023/06/23 01:31:54;;;;;;;9.48;3.42;;;;;;;26.16;49.08;98779.84;2069825;28;20468;-52
2023/06/23 01:33:03;;;;;;;7.43;3.40;;;;;;;26.12;49.54;98761.56;2071429;28;20050;-54
2023/06/23 01:34:08;;;;;;;9.32;4.43;;;;;;;26.11;49.03;98744.41;2070598;28;20046;-48
2023/06/23 01:35:15;;;;;;;5.68;3.10;;;;;;;26.18;49.07;98738.78;2067535;28;20057;-51
2023/06/23 01:36:25;;;;;;;7.38;3.78;;;;;;;26.23;49.05;98736.97;2069021;28;20471;-53
2023/06/23 01:37:30;;;;;;;3.75;3.05;;;;;;;26.17;49.15;98739.88;2070748;28;20045;-55
2023/06/23 01:38:36;;;;;;;8.00;3.78;;;;;;;26.21;49.21;98755.41;2067232;28;20123;-54
2023/06/23 01:39:42;;;;;;;6.18;3.13;;;;;;;26.28;49.16;98760.69;2070437;28;20073;-50
2023/06/23 01:40:49;;;;;;;6.57;3.38;;;;;;;26.33;49.09;98766.22;2069884;28;20049;-50
2023/06/23 01:42:01;;;;;;;7.80;3.97;;;;;;;26.34;49.05;98765.13;2070085;28;20572;-48
2023/06/23 01:43:06;;;;;;;6.15;3.63;;;;;;;26.38;48.67;98760.00;2069454;28;20073;-51
2023/06/23 01:44:14;;;;;;;4.93;3.67;;;;;;;26.38;49.20;98754.56;2071338;28;20441;-52
2023/06/23 01:45:16;;;;;;;7.38;4.25;;;;;;;26.40;48.91;98753.22;2069840;28;20491;-48
2023/06/23 01:46:25;;;;;;;6.55;3.88;;;;;;;26.37;49.11;98756.47;2071011;28;20038;-55
2023/06/23 01:47:29;;;;;;;7.43;3.60;;;;;;;26.30;49.50;98764.81;2067002;28;20144;-48
2023/06/23 01:48:33;;;;;;;8.20;3.40;;;;;;;26.18;49.29;98768.69;2069767;28;20111;-49
2023/06/23 01:49:36;;;;;;;5.57;4.03;;;;;;;26.08;49.00;98772.09;2071594;28;20132;-52
2023/06/23 01:50:40;;;;;;;6.57;3.63;;;;;;;26.02;49.24;98773.94;2067758;28;20048;-51
2023/06/23 01:51:44;;;;;;;9.35;3.65;;;;;;;25.94;50.06;98774.34;2070168;28;20087;-49
2023/06/23 01:52:48;;;;;;;6.13;3.40;;;;;;;25.94;49.22;98777.06;2069195;28;20046;-51
2023/06/23 01:53:51;;;;;;;6.53;3.72;;;;;;;25.95;49.51;98777.88;2073436;28;20088;-54
2023/06/23 01:54:55;;;;;;;6.90;3.95;;;;;;;25.98;49.27;98778.19;2068471;28;20053;-55
2023/06/23 01:55:57;;;;;;;5.03;3.40;;;;;;;26.07;49.02;98776.69;2070686;28;20538;-51
2023/06/23 01:57:01;;;;;;;9.00;3.83;;;;;;;25.98;47.66;98782.81;2067538;28;20058;-54
2023/06/23 01:58:03;;;;;;;5.68;3.72;;;;;;;25.92;48.27;98783.81;2071878;28;20160;-51
2023/06/23 01:59:05;;;;;;;5.90;3.90;;;;;;;25.94;47.52;98782.50;2066256;28;20073;-53
2023/06/23 02:00:13;;;;;;;14.63;4.53;;;;;;;25.93;46.77;98780.84;2071965;28;20075;-53
2023/06/23 02:01:16;;;;;;;6.57;3.95;;;;;;;25.96;47.62;98782.22;2070996;28;20598;-52
2023/06/23 02:02:18;;;;;;;7.53;3.80;;;;;;;25.97;47.71;98771.13;2069875;28;20107;-52
2023/06/23 02:03:21;;;;;;;5.63;4.72;;;;;;;25.94;47.81;98778.97;2069573;28;21094;-52
2023/06/23 02:04:23;;;;;;;9.05;4.10;;;;;;;25.84;46.57;98782.34;2071548;28;20495;-49
2023/06/23 02:05:27;;;;;;;6.72;4.10;;;;;;;25.77;46.50;98771.59;2070502;28;20065;-49
2023/06/23 02:06:30;;;;;;;6.78;4.60;;;;;;;25.81;46.42;98761.88;2065677;28;20049;-53
2023/06/23 02:07:34;;;;;;;6.63;3.55;;;;;;;25.77;47.47;98755.31;2068253;28;20064;-54
2023/06/23 02:08:36;;;;;;;5.72;2.90;;;;;;;25.78;46.60;98750.69;2069155;28;20048;-50
2023/06/23 02:09:40;;;;;;;10.82;3.88;;;;;;;25.82;45.92;98762.69;2070221;28;20053;-55
2023/06/23 02:10:43;;;;;;;5.65;4.03;;;;;;;25.85;45.30;98754.06;2072535;28;20042;-49
2023/06/23 02:11:44;;;;;;;12.10;4.38;;;;;;;25.83;45.56;98765.22;2070391;28;20384;-56
2023/06/23 02:12:48;;;;;;;5.63;3.33;;;;;;;25.78;45.14;98775.16;2069571;28;20057;-52
2023/06/23 02:13:51;;;;;;;5.85;3.45;;;;;;;25.57;46.71;98777.50;2071419;28;20294;-54
2023/06/23 02:14:53;;;;;;;4.50;3.60;;;;;;;25.50;47.31;98781.47;2071540;28;20045;-50
2023/06/23 02:15:58;;;;;;;9.00;4.63;;;;;;;25.44;47.74;98780.56;2072450;28;20574;-49
2023/06/23 02:17:00;;;;;;;7.95;3.67;;;;;;;25.17;47.96;98789.28;2069595;28;20053;-55
2023/06/23 02:18:02;;;;;;;8.25;4.28;;;;;;;25.22;48.51;98783.16;2072353;28;20148;-54
2023/06/23 02:19:05;;;;;;;6.88;4.05;;;;;;;25.14;48.60;98780.78;2068646;28;20045;-53
2023/06/23 02:20:15;;;;;;;8.52;3.95;;;;;;;25.25;49.20;98779.94;2072149;28;20129;-50
2023/06/23 02:21:17;;;;;;;5.05;3.58;;;;;;;25.25;49.25;98779.13;2070770;28;21200;-50
2023/06/23 02:22:20;;;;;;;5.38;3.88;;;;;;;25.37;48.78;98769.84;2067460;28;20045;-48
2023/06/23 02:23:23;;;;;;;6.70;3.67;;;;;;;25.47;49.19;98765.66;2070659;28;20050;-51
2023/06/23 02:24:25;;;;;;;7.75;4.10;;;;;;;25.51;48.79;98764.91;2070359;28;20428;-49
2023/06/23 02:25:27;;;;;;;4.82;3.70;;;;;;;25.60;48.62;98765.31;2070015;28;20120;-53
2023/06/23 02:26:28;;;;;;;5.75;4.53;;;;;;;25.60;47.23;98759.91;2069536;28;20093;-51
2023/06/23 02:27:30;;;;;;;8.32;3.75;;;;;;;25.44;46.71;98758.03;2068584;28;20061;-51
2023/06/23 02:28:32;;;;;;;5.50;3.25;;;;;;;25.35;46.98;98755.72;2068990;28;20252;-51
2023/06/23 02:29:35;;;;;;;6.32;3.67;;;;;;;25.46;47.68;98740.38;2071899;28;20053;-49
2023/06/23 02:30:37;;;;;;;3.95;3.50;;;;;;;25.54;48.03;98747.31;2071638;28;20128;-51
2023/06/23 02:31:40;;;;;;;7.88;3.78;;;;;;;25.60;48.03;98733.59;2068785;28;20092;-51
2023/06/23 02:32:41;;;;;;;10.95;3.55;;;;;;;25.70;48.67;98735.63;2067671;28;20323;-55
2023/06/23 02:33:43;;;;;;;5.38;3.50;;;;;;;25.78;48.36;98745.25;2071625;28;20136;-49
2023/06/23 02:34:46;;;;;;;9.82;3.63;;;;;;;25.86;49.17;98734.00;2069946;28;20599;-55
2023/06/23 02:35:49;;;;;;;6.57;3.72;;;;;;;25.93;49.42;98736.53;2070329;28;20427;-52
2023/06/23 02:36:57;;;;;;;9.82;4.55;;;;;;;26.00;48.90;98732.56;2069536;28;20053;-57
2023/06/23 02:38:01;;;;;;;5.50;4.20;;;;;;;26.05;48.76;98729.94;2067873;28;20049;-51
2023/06/23 02:39:05;;;;;;;6.35;3.60;;;;;;;26.08;48.58;98724.00;2069341;28;20304;-56
2023/06/23 02:40:16;;;;;;;7.90;3.70;;;;;;;26.10;48.69;98734.59;2073277;28;20089;-54
2023/06/23 02:41:17;;;;;;;6.10;3.72;;;;;;;26.08;48.86;98737.59;2069889;28;20423;-52
2023/06/23 02:42:22;;;;;;;4.55;3.22;;;;;;;26.05;49.03;98740.00;2070225;28;20462;-53
2023/06/23 02:43:28;;;;;;;4.97;3.83;;;;;;;25.95;47.93;98739.84;2067105;28;20080;-53
2023/06/23 02:44:35;;;;;;;5.00;3.78;;;;;;;25.95;48.34;98742.56;2069931;28;20050;-51
2023/06/23 02:45:53;;;;;;;6.63;3.97;;;;;;;25.89;48.25;98747.09;2069915;28;20378;-51
2023/06/23 02:46:58;;;;;;;9.90;4.38;;;;;;;25.94;48.20;98744.44;2073310;28;20049;-48
2023/06/23 02:48:00;;;;;;;6.45;3.60;;;;;;;25.90;48.83;98743.28;2073305;28;21506;-55
2023/06/23 02:49:06;;;;;;;4.20;3.38;;;;;;;25.82;48.52;98743.69;2073574;28;20135;-54
2023/06/23 02:50:11;;;;;;;7.05;3.63;;;;;;;25.83;48.87;98735.31;2072404;28;20177;-52
2023/06/23 02:51:16;;;;;;;4.35;3.38;;;;;;;25.78;48.87;98734.38;2072496;28;20054;-50
2023/06/23 02:52:18;;;;;;;9.43;3.88;;;;;;;25.73;48.59;98740.56;2070722;28;20448;-50
2023/06/23 02:53:23;;;;;;;6.60;4.28;;;;;;;25.70;48.38;98729.38;2074087;28;20567;-53
2023/06/23 02:54:25;;;;;;;5.82;3.25;;;;;;;25.74;48.72;98735.94;2072496;28;20114;-51
2023/06/23 02:55:29;;;;;;;5.80;3.75;;;;;;;25.75;48.49;98729.47;2070932;28;20048;-55
2023/06/23 02:56:32;;;;;;;9.27;3.88;;;;;;;25.79;48.56;98728.69;2072137;28;20058;-52
2023/06/23 02:57:35;;;;;;;4.47;3.10;;;;;;;25.83;48.78;98726.34;2072409;28;20062;-53
2023/06/23 02:58:37;;;;;;;5.43;3.03;;;;;;;25.83;48.77;98729.06;2073477;28;20092;-51
2023/06/23 02:59:41;;;;;;;4.50;3.45;;;;;;;25.86;48.23;98723.13;2074017;28;20156;-52
2023/06/23 03:00:44;;;;;;;4.63;3.50;;;;;;;25.88;48.62;98729.13;2071127;28;20091;-48
2023/06/23 03:01:48;;;;;;;6.13;4.18;;;;;;;25.89;48.37;98722.63;2073202;28;20045;-53
2023/06/23 03:02:55;;;;;;;6.20;3.20;;;;;;;25.90;48.75;98720.72;2074041;28;20135;-55
2023/06/23 03:03:57;;;;;;;10.55;4.03;;;;;;;25.90;48.27;98723.44;2071252;28;20049;-51
2023/06/23 03:04:59;;;;;;;7.60;2.90;;;;;;;25.93;48.07;98717.50;2072994;28;20060;-48
2023/06/23 03:06:00;;;;;;;9.20;5.05;;;;;;;25.94;48.58;98720.00;2069236;28;20088;-55
2023/06/23 03:07:03;;;;;;;9.77;3.53;;;;;;;25.93;47.73;98715.63;2070152;28;20527;-52
2023/06/23 03:08:06;;;;;;;10.40;4.13;;;;;;;25.92;48.05;98711.25;2072564;28;20053;-54
2023/06/23 03:09:07;;;;;;;6.30;4.00;;;;;;;25.82;48.38;98714.59;2070750;28;20237;-52
2023/06/23 03:10:09;;;;;;;7.13;4.15;;;;;;;25.80;48.35;98703.19;2073005;28;20056;-53
2023/06/23 03:11:10;;;;;;;9.00;3.40;;;;;;;25.79;47.97;98703.41;2073669;28;20057;-53
2023/06/23 03:12:12;;;;;;;4.43;3.95;;;;;;;25.81;48.17;98704.81;2072191;28;20450;-52
2023/06/23 03:13:13;;;;;;;5.53;3.35;;;;;;;25.88;47.61;98703.84;2073854;28;20045;-51
2023/06/23 03:14:15;;;;;;;5.88;3.88;;;;;;;25.88;47.77;98696.50;2072442;28;20045;-54
2023/06/23 03:15:16;;;;;;;8.32;3.58;;;;;;;25.90;47.76;98705.25;2070889;28;20524;-54
2023/06/23 03:16:23;;;;;;;4.43;3.60;;;;;;;25.92;47.82;98700.41;2074107;28;20053;-49
2023/06/23 03:17:27;;;;;;;4.38;3.97;;;;;;;25.91;48.63;98711.50;2072444;28;20104;-54
2023/06/23 03:18:35;;;;;;;4.53;3.10;;;;;;;25.83;47.12;98710.06;2075455;28;20055;-51
2023/06/23 03:19:42;;;;;;;5.32;3.58;;;;;;;25.85;47.29;98705.16;2074178;28;20041;-53
2023/06/23 03:20:48;;;;;;;4.35;3.65;;;;;;;25.78;48.31;98704.50;2072637;28;20067;-50
2023/06/23 03:21:54;;;;;;;7.38;3.60;;;;;;;25.80;48.63;98707.81;2063508;28;20556;-49
2023/06/23 03:23:02;;;;;;;4.32;3.72;;;;;;;25.77;47.04;98705.56;2070410;28;20071;-54
2023/06/23 03:24:07;;;;;;;5.15;3.25;;;;;;;25.74;47.08;98714.22;2072150;28;20050;-52
2023/06/23 03:25:15;;;;;;;5.95;3.38;;;;;;;25.74;47.93;98715.06;2073268;28;20381;-54
2023/06/23 03:26:19;;;;;;;8.13;4.53;;;;;;;25.75;48.10;98710.44;2071893;28;20636;-48
2023/06/23 03:27:23;;;;;;;4.95;3.55;;;;;;;25.74;47.50;98706.91;2071805;28;20088;-50
2023/06/23 03:28:27;;;;;;;7.15;3.35;;;;;;;25.78;47.40;98712.66;2073213;28;20042;-48
2023/06/23 03:29:33;;;;;;;4.28;2.80;;;;;;;25.81;47.58;98712.97;2073851;28;20503;-51
2023/06/23 03:30:40;;;;;;;6.68;3.45;;;;;;;25.84;47.07;98717.13;2071342;28;20095;-52
2023/06/23 03:31:45;;;;;;;6.82;3.45;;;;;;;25.88;47.45;98723.69;2072525;28;20050;-50
2023/06/23 03:32:49;;;;;;;5.70;3.33;;;;;;;25.92;48.12;98724.84;2071408;28;20475;-49
2023/06/23 03:33:53;;;;;;;6.78;4.65;;;;;;;25.96;48.15;98734.13;2072770;28;20562;-48
2023/06/23 03:34:58;;;;;;;6.45;3.47;;;;;;;26.01;47.92;98730.69;2072075;28;20077;-51
2023/06/23 03:36:06;;;;;;;5.53;3.60;;;;;;;25.99;47.99;98730.94;2072279;28;20234;-54
2023/06/23 03:37:10;;;;;;;5.85;3.72;;;;;;;26.00;48.00;98732.56;2074070;28;20057;-54
2023/06/23 03:38:16;;;;;;;6.28;4.10;;;;;;;26.02;48.37;98730.44;2074999;28;20088;-54
2023/06/23 03:39:21;;;;;;;5.20;3.85;;;;;;;26.02;49.01;98733.16;2072452;28;20408;-52
2023/06/23 03:40:25;;;;;;;6.40;4.15;;;;;;;26.06;49.61;98734.28;2068972;28;20043;-51
2023/06/23 03:41:29;;;;;;;4.68;3.65;;;;;;;26.07;48.97;98735.94;2072222;28;20085;-53
2023/06/23 03:42:30;;;;;;;6.78;3.65;;;;;;;26.11;48.85;98735.44;2072148;28;20046;-49
2023/06/23 03:43:36;;;;;;;4.28;3.88;;;;;;;26.11;48.97;98736.28;2072206;28;20056;-55
2023/06/23 03:44:41;;;;;;;7.22;3.13;;;;;;;26.10;49.06;98729.16;2074379;28;20140;-49
2023/06/23 03:45:45;;;;;;;3.75;3.20;;;;;;;26.05;49.44;98727.22;2073869;28;20049;-53
2023/06/23 03:46:53;;;;;;;6.28;3.88;;;;;;;26.06;49.54;98728.84;2072647;28;20045;-51
2023/06/23 03:48:00;;;;;;;9.85;3.90;;;;;;;26.04;48.48;98731.00;2070375;28;20053;-49
2023/06/23 03:49:07;;;;;;;7.30;3.60;;;;;;;26.04;48.12;98722.03;2073744;28;20053;-54
2023/06/23 03:50:10;;;;;;;3.50;2.92;;;;;;;25.99;47.33;98720.06;2069874;28;20523;-54
2023/06/23 03:51:16;;;;;;;8.70;3.17;;;;;;;25.95;47.64;98724.34;2073756;28;20057;-51
2023/06/23 03:52:17;;;;;;;6.13;4.10;;;;;;;25.95;47.27;98723.53;2073266;28;20176;-48
2023/06/23 03:53:21;;;;;;;7.32;4.35;;;;;;;25.95;47.65;98720.81;2072839;28;20041;-48
2023/06/23 03:54:24;;;;;;;5.40;3.10;;;;;;;25.98;48.48;98725.75;2072453;28;20756;-53
2023/06/23 03:55:28;;;;;;;5.13;3.67;;;;;;;25.77;45.46;98725.41;2072294;28;20053;-50
2023/06/23 03:56:32;;;;;;;7.47;3.80;;;;;;;25.71;46.08;98729.09;2072710;28;20057;-53
2023/06/23 03:57:36;;;;;;;8.93;4.07;;;;;;;25.74;46.54;98733.22;2071944;28;20289;-53
2023/06/23 03:58:38;;;;;;;5.78;2.97;;;;;;;25.68;46.11;98736.94;2070997;28;21031;-48
2023/06/23 03:59:42;;;;;;;8.35;3.80;;;;;;;25.66;46.96;98728.22;2073191;28;20060;-54
2023/06/23 04:00:44;;;;;;;4.85;3.67;;;;;;;25.64;46.37;98726.56;2072312;28;20100;-52
2023/06/23 04:01:48;;;;;;;5.50;3.85;;;;;;;25.61;45.76;98727.06;2070522;28;20103;-50
2023/06/23 04:02:51;;;;;;;6.90;3.20;;;;;;;25.64;46.65;98725.75;2070719;28;20484;-53
2023/06/23 04:03:55;;;;;;;5.25;3.63;;;;;;;25.71;47.08;98733.72;2071112;28;20053;-51
2023/06/23 04:04:59;;;;;;;6.28;3.20;;;;;;;25.73;46.32;98724.25;2069661;28;20077;-52
2023/06/23 04:06:03;;;;;;;9.00;3.63;;;;;;;25.45;45.87;98727.88;2071955;28;20168;-55
2023/06/23 04:07:08;;;;;;;10.15;4.68;;;;;;;25.32;46.29;98722.78;2069024;28;20126;-54
2023/06/23 04:08:12;;;;;;;5.40;3.60;;;;;;;25.18;46.43;98727.69;2073457;28;20049;-50
2023/06/23 04:09:14;;;;;;;5.53;3.10;;;;;;;25.21;46.24;98723.66;2069832;28;20136;-54
2023/06/23 04:10:19;;;;;;;12.40;3.40;;;;;;;25.23;46.03;98724.25;2070741;28;20169;-50
2023/06/23 04:11:22;;;;;;;5.43;3.42;;;;;;;25.14;46.32;98716.50;2070351;28;20064;-54
2023/06/23 04:12:26;;;;;;;7.70;3.67;;;;;;;25.12;46.60;98715.88;2069911;28;20056;-53
2023/06/23 04:13:28;;;;;;;4.13;3.20;;;;;;;25.17;46.11;98721.44;2068741;28;20521;-49
2023/06/23 04:14:32;;;;;;;6.63;3.90;;;;;;;25.18;47.10;98716.84;2071615;28;20049;-49
2023/06/23 04:15:37;;;;;;;6.78;3.42;;;;;;;25.29;47.18;98732.22;2069659;28;20119;-53
2023/06/23 04:16:41;;;;;;;4.20;3.05;;;;;;;25.41;47.70;98727.56;2071999;28;21311;-47
2023/06/23 04:17:44;;;;;;;4.40;3.33;;;;;;;25.40;46.91;98727.78;2071566;28;20049;-50
2023/06/23 04:18:50;;;;;;;8.95;4.07;;;;;;;25.42;47.87;98737.34;2071671;28;20076;-50
2023/06/23 04:19:54;;;;;;;5.82;3.45;;;;;;;25.53;47.92;98738.34;2074213;28;20390;-54
2023/06/23 04:20:58;;;;;;;5.25;3.65;;;;;;;25.58;48.97;98740.34;2069053;28;20131;-53
2023/06/23 04:22:02;;;;;;;8.30;2.92;;;;;;;25.35;46.93;98742.13;2070130;28;20053;-53
2023/06/23 04:23:06;;;;;;;9.45;3.65;;;;;;;25.29;47.62;98736.84;2066801;28;20141;-55
2023/06/23 04:24:09;;;;;;;5.55;3.35;;;;;;;25.32;47.62;98739.06;2069806;28;20136;-54
2023/06/23 04:25:12;;;;;;;8.68;4.18;;;;;;;25.26;48.29;98738.16;2068867;28;20478;-51
2023/06/23 04:26:14;;;;;;;4.82;3.33;;;;;;;25.22;48.74;98731.56;2072099;28;20404;-52
2023/06/23 04:27:19;;;;;;;9.93;3.35;;;;;;;25.23;47.75;98729.69;2072521;28;20050;-54
2023/06/23 04:28:23;;;;;;;6.47;3.75;;;;;;;25.19;47.98;98732.06;2071321;28;21143;-55
2023/06/23 04:29:27;;;;;;;13.77;4.35;;;;;;;25.12;48.29;98729.47;2069486;28;20084;-51
2023/06/23 04:30:31;;;;;;;7.00;4.30;;;;;;;25.20;49.05;98739.13;2069655;28;20456;-54
2023/06/23 04:31:35;;;;;;;5.30;3.72;;;;;;;25.29;48.54;98742.25;2069335;28;20129;-52
2023/06/23 04:32:38;;;;;;;5.57;4.40;;;;;;;25.29;48.26;98736.84;2072653;28;20107;-52
2023/06/23 04:33:40;;;;;;;13.75;3.85;;;;;;;25.26;47.93;98745.47;2070929;28;20458;-55
2023/06/23 04:34:42;;;;;;;11.98;4.07;;;;;;;25.21;47.41;98739.94;2069826;28;22589;-52
2023/06/23 04:35:44;;;;;;;5.15;3.58;;;;;;;25.24;48.53;98734.03;2071207;28;20488;-51
2023/06/23 04:36:49;;;;;;;11.50;4.75;;;;;;;25.24;48.05;98742.16;2071480;28;20049;-49
2023/06/23 04:37:58;;;;;;;7.70;4.13;;;;;;;25.22;49.09;98739.72;2072580;28;20829;-52
2023/06/23 04:39:06;;;;;;;16.83;5.55;;;;;;;25.28;49.27;98740.63;2071470;28;20054;-53
2023/06/23 04:40:12;;;;;;;15.98;4.95;;;;;;;25.29;49.16;98742.25;2069641;28;20061;-54
2023/06/23 04:41:19;;;;;;;17.23;6.00;;;;;;;25.24;49.48;98740.31;2070164;28;20054;-53
2023/06/23 04:42:24;;;;;;;12.00;5.40;;;;;;;25.26;49.54;98740.88;2071166;28;20061;-49
2023/06/23 04:43:30;;;;;;;14.52;5.10;;;;;;;25.29;49.55;98736.84;2069360;28;20042;-53
2023/06/23 04:44:41;;;;;;;6.82;3.65;;;;;;;25.31;49.48;98742.84;2071350;28;20057;-53
2023/06/23 04:45:47;;;;;;;;;;;;;;;25.23;49.99;98744.06;2072474;28;20076;-50
2023/06/23 04:46:52;;;;;;;10.98;4.47;;;;;;;25.27;49.61;98742.53;2060257;28;20032;-55
2023/06/23 04:47:58;;;;;;;7.63;4.45;;;;;;;25.36;49.52;98743.75;2071595;28;20136;-53
2023/06/23 04:49:03;;;;;;;7.82;4.35;;;;;;;25.43;49.40;98740.88;2069584;28;20077;-53
2023/06/23 04:50:09;;;;;;;7.85;3.38;;;;;;;25.47;49.21;98743.94;2070759;28;20046;-48
2023/06/23 04:51:11;;;;;;;9.00;3.80;;;;;;;25.50;49.60;98740.75;2072437;28;20125;-48
2023/06/23 04:52:17;;;;;;;9.88;3.50;;;;;;;25.52;49.59;98744.84;2072659;28;20478;-48
2023/06/23 04:53:21;;;;;;;9.07;4.22;;;;;;;25.55;49.54;98736.22;2069502;28;20128;-48
2023/06/23 04:54:27;;;;;;;12.70;5.20;;;;;;;25.57;49.48;98730.50;2070561;28;20797;-48
2023/06/23 04:55:32;;;;;;;12.20;5.13;;;;;;;25.57;50.08;98734.06;2071881;28;20618;-48
2023/06/23 04:56:38;;;;;;;13.65;4.40;;;;;;;25.56;50.03;98737.03;2068555;28;20343;-48
2023/06/23 04:57:41;;;;;;;5.63;3.50;;;;;;;25.55;49.88;98735.41;2069793;28;20132;-47
2023/06/23 04:58:44;;;;;;;6.30;4.30;;;;;;;25.57;50.28;98741.38;2068740;28;20054;-49
2023/06/23 04:59:51;;;;;;;8.73;4.53;;;;;;;25.53;49.76;98743.78;2073403;28;20164;-51
2023/06/23 05:00:55;;;;;;;7.15;4.60;;;;;;;25.51;50.02;98737.75;2068288;28;20081;-48